WXM80 ListenWXM80 Stop

You find our weather info also at:

UK Metoffice

WeatherCloud

Weather Underground

Northeastern Weather Network

AWEKAS

Citizen Weather Observer Program (CWOP)

HAMweather, WeatherForYou, PWS Weather


Weather Underground History page Text

Daily Summary for February 13, 2018 Units:  Metric    English   Both
« Previous Day
Next Day »
Daily Weekly Monthly Yearly Custom
  High: Low: Average:
Temperature: 1.5 °C -3.3 °C -0.9 °C
Dew Point: -3.1 °C -10.6 °C -7.4 °C
Humidity: 82 % 43 % 62 %
Wind Speed: 19.3 km/h 0 km/h 6 km/h
Wind Gust: 31.5 km/h - -
Wind:- - East
Pressure: 1036.1 hPa 1026.3 hPa -
Precipitation: 0 mm    
Historical Graphs
 
 
Tabular Data for February 13, 2018
Time Temperature Dew Point Pressure Wind Wind Speed Wind Gust Humidity Rainfall Rate (Hourly)
00:02 -0.2 °C -5 °C 1030.4 hPa NNW 8.2 km/h 13 km/h 70 % 0 mm
00:07 -0.2 °C -4.8 °C 1030.4 hPa North 7.9 km/h 9.7 km/h 71 % 0 mm
00:12 -0.2 °C -4.8 °C 1030.4 hPa NE 8.5 km/h 11.1 km/h 71 % 0 mm
00:18 -0.3 °C -4.9 °C 1030.4 hPa NNE 13.5 km/h 18.5 km/h 71 % 0 mm
00:23 -0.3 °C -5.2 °C 1030.7 hPa NNW 6.6 km/h 18.5 km/h 70 % 0 mm
00:28 -0.4 °C -5.2 °C 1030.7 hPa NW 6.3 km/h 13 km/h 70 % 0 mm
00:33 -0.4 °C -5.3 °C 1030.7 hPa NNE 5.1 km/h 9.3 km/h 70 % 0 mm
00:38 -0.5 °C -5.3 °C 1030.7 hPa North 8.2 km/h 13 km/h 70 % 0 mm
00:43 -0.5 °C -5.3 °C 1030.7 hPa NNW 6.4 km/h 11.3 km/h 70 % 0 mm
00:48 -0.6 °C -5.2 °C 1030.7 hPa North 5.8 km/h 9.3 km/h 71 % 0 mm
00:53 -0.7 °C -5.3 °C 1030.7 hPa NNE 8 km/h 13 km/h 71 % 0 mm
00:58 -0.7 °C -5.3 °C 1031 hPa NE 5.5 km/h 11.1 km/h 71 % 0 mm
01:03 -0.8 °C -5.4 °C 1031 hPa NNW 7.2 km/h 14.8 km/h 71 % 0 mm
01:08 -0.8 °C -5.6 °C 1031 hPa North 7.4 km/h 11.3 km/h 70 % 0 mm
01:13 -0.9 °C -5.7 °C 1031 hPa NNE 7.2 km/h 13 km/h 70 % 0 mm
01:18 -0.9 °C -5.6 °C 1031 hPa NNE 10.8 km/h 14.8 km/h 71 % 0 mm
01:23 -1.1 °C -5.8 °C 1031 hPa NNE 8.7 km/h 14.8 km/h 70 % 0 mm
01:28 -1.1 °C -5.9 °C 1031 hPa NNE 8.5 km/h 16.7 km/h 70 % 0 mm
01:33 -1.2 °C -5.9 °C 1031.4 hPa NNW 9.7 km/h 18.5 km/h 70 % 0 mm
01:38 -1.3 °C -6.1 °C 1031.4 hPa North 11.1 km/h 18.5 km/h 70 % 0 mm
01:43 -1.3 °C -6.3 °C 1031.4 hPa North 12.7 km/h 16.7 km/h 69 % 0 mm
01:48 -1.4 °C -6.2 °C 1031.4 hPa NNE 11.4 km/h 16.7 km/h 70 % 0 mm
01:54 -1.4 °C -6.2 °C 1031.7 hPa NNE 3.7 km/h 16.7 km/h 70 % 0 mm
01:59 -1.5 °C -6.3 °C 1031.7 hPa NNE 10.1 km/h 16.7 km/h 70 % 0 mm
02:04 -1.6 °C -6.3 °C 1031.7 hPa NNE 10 km/h 14.8 km/h 70 % 0 mm
02:09 -1.6 °C -6.4 °C 1031.7 hPa NNE 12.9 km/h 18.5 km/h 70 % 0 mm
02:14 -1.7 °C -6.7 °C 1031.7 hPa NNW 10.3 km/h 17.7 km/h 69 % 0 mm
02:19 -1.8 °C -6.7 °C 1032.1 hPa North 13.5 km/h 24.1 km/h 69 % 0 mm
02:24 -1.8 °C -6.8 °C 1032.1 hPa North 6.3 km/h 18.5 km/h 69 % 0 mm
02:29 -1.8 °C -6.6 °C 1031.7 hPa NE 8.5 km/h 13 km/h 70 % 0 mm
02:34 -1.9 °C -6.6 °C 1031.7 hPa NNE 13.2 km/h 18.5 km/h 70 % 0 mm
02:39 -1.9 °C -6.7 °C 1031.7 hPa North 11.9 km/h 16.7 km/h 70 % 0 mm
02:44 -2 °C -6.7 °C 1031.7 hPa North 8.7 km/h 18.5 km/h 70 % 0 mm
02:49 -2 °C -6.7 °C 1031.7 hPa NNE 15.4 km/h 24.1 km/h 70 % 0 mm
02:54 -2.1 °C -6.8 °C 1031.7 hPa NNE 7.7 km/h 11.3 km/h 70 % 0 mm
02:59 -2.1 °C -6.8 °C 1031.7 hPa NNE 11.7 km/h 24.1 km/h 70 % 0 mm
03:04 -2.1 °C -6.8 °C 1032.1 hPa NNE 14.2 km/h 20.4 km/h 70 % 0 mm
03:09 -2.2 °C -6.9 °C 1032.1 hPa North 10.8 km/h 20.4 km/h 70 % 0 mm
03:15 -2.2 °C -6.9 °C 1032.1 hPa NE 14 km/h 20.9 km/h 70 % 0 mm
03:20 -2.3 °C -7.2 °C 1032.4 hPa North 10.8 km/h 14.8 km/h 69 % 0 mm
03:25 -2.3 °C -7.2 °C 1032.4 hPa North 13.4 km/h 24.1 km/h 69 % 0 mm
03:30 -2.3 °C -7.3 °C 1032.4 hPa NNE 12.4 km/h 19.3 km/h 69 % 0 mm
03:35 -2.4 °C -7.3 °C 1032.4 hPa NE 9.5 km/h 24.1 km/h 69 % 0 mm
03:40 -2.4 °C -7.3 °C 1032.4 hPa NNW 14.6 km/h 22.5 km/h 69 % 0 mm
03:45 -2.4 °C -7.3 °C 1032.4 hPa NNE 13.7 km/h 19.3 km/h 69 % 0 mm
03:50 -2.5 °C -7.4 °C 1032.4 hPa NNE 10.6 km/h 16.7 km/h 69 % 0 mm
03:55 -2.6 °C -7.4 °C 1032.4 hPa NNE 10.9 km/h 16.7 km/h 69 % 0 mm
04:00 -2.6 °C -7.4 °C 1032.7 hPa NE 11.3 km/h 22.2 km/h 69 % 0 mm
04:05 -2.6 °C -7.5 °C 1032.7 hPa NNE 11.3 km/h 18.5 km/h 69 % 0 mm
04:10 -2.7 °C -7.8 °C 1032.7 hPa NE 11.7 km/h 20.4 km/h 68 % 0 mm
04:15 -2.7 °C -7.6 °C 1032.7 hPa NNE 11.3 km/h 18.5 km/h 69 % 0 mm
04:20 -2.7 °C -7.8 °C 1032.7 hPa North 16.6 km/h 18.5 km/h 68 % 0 mm
04:25 -2.7 °C -7.8 °C 1032.7 hPa NNE 15 km/h 22.2 km/h 68 % 0 mm
04:30 -2.8 °C -7.9 °C 1032.7 hPa NNW 15.6 km/h 22.5 km/h 68 % 0 mm
04:35 -2.8 °C -7.9 °C 1032.7 hPa NE 14.2 km/h 20.4 km/h 68 % 0 mm
04:40 -2.8 °C -8.1 °C 1032.7 hPa NNW 10.6 km/h 22.2 km/h 67 % 0 mm
04:45 -2.8 °C -8.1 °C 1033.1 hPa North 12.7 km/h 22.5 km/h 67 % 0 mm
04:50 -2.8 °C -8.3 °C 1033.1 hPa NNE 14.5 km/h 22.5 km/h 66 % 0 mm
04:55 -2.8 °C -8.1 °C 1033.4 hPa North 11.3 km/h 19.3 km/h 67 % 0 mm
05:00 -2.9 °C -8.3 °C 1033.4 hPa NNE 9.8 km/h 16.7 km/h 66 % 0 mm
05:05 -2.9 °C -8.6 °C 1033.4 hPa NNE 9.7 km/h 19.3 km/h 65 % 0 mm
05:10 -2.9 °C -8.6 °C 1033.4 hPa North 11.3 km/h 22.5 km/h 65 % 0 mm
05:15 -2.9 °C -8.6 °C 1033.7 hPa NNE 15.6 km/h 24.1 km/h 65 % 0 mm
05:20 -3 °C -8.8 °C 1033.7 hPa NNE 12.9 km/h 19.3 km/h 64 % 0 mm
05:25 -3 °C -8.8 °C 1033.7 hPa North 11.3 km/h 20.9 km/h 64 % 0 mm
05:30 -3 °C -8.8 °C 1033.7 hPa North 9.7 km/h 19.3 km/h 64 % 0 mm
05:35 -3.1 °C -8.9 °C 1033.7 hPa North 11.3 km/h 19.3 km/h 64 % 0 mm
05:40 -3.1 °C -8.9 °C 1033.7 hPa North 11.3 km/h 20.9 km/h 64 % 0 mm
05:45 -3.1 °C -8.9 °C 1033.7 hPa North 12.9 km/h 25.7 km/h 64 % 0 mm
05:50 -3.1 °C -9.4 °C 1033.7 hPa NNE 14.5 km/h 24.1 km/h 62 % 0 mm
05:55 -3.1 °C -9.6 °C 1033.7 hPa NNE 14.3 km/h 27.8 km/h 61 % 0 mm
06:01 -3.1 °C -9.6 °C 1033.7 hPa NNE 12.7 km/h 18.5 km/h 61 % 0 mm
06:06 -3.2 °C -9.8 °C 1033.7 hPa North 15.4 km/h 20.4 km/h 60 % 0 mm
06:11 -3.2 °C -9.8 °C 1033.4 hPa NNW 9.3 km/h 16.7 km/h 60 % 0 mm
06:16 -3.2 °C -9.4 °C 1033.7 hPa North 16.4 km/h 24.1 km/h 62 % 0 mm
06:21 -3.2 °C -9.8 °C 1033.7 hPa NNE 16.7 km/h 20.9 km/h 60 % 0 mm
06:26 -3.2 °C -9.8 °C 1033.7 hPa North 12.6 km/h 20.4 km/h 60 % 0 mm
06:31 -3.2 °C -9.9 °C 1034.1 hPa NNE 11.6 km/h 19.3 km/h 60 % 0 mm
06:36 -3.2 °C -9.9 °C 1034.1 hPa North 13.7 km/h 22.2 km/h 60 % 0 mm
06:41 -3.2 °C -9.9 °C 1034.1 hPa NNE 19.3 km/h 25.9 km/h 60 % 0 mm
06:46 -3.2 °C -10.3 °C 1034.1 hPa NNE 12.9 km/h 29.6 km/h 58 % 0 mm
06:51 -3.3 °C -10.6 °C 1034.4 hPa NNE 18.2 km/h 31.5 km/h 57 % 0 mm
06:56 -3.3 °C -10.2 °C 1034.4 hPa NE 15.6 km/h 22.2 km/h 59 % 0 mm
07:01 -3.3 °C -10.2 °C 1034.4 hPa NNE 10.5 km/h 16.7 km/h 59 % 0 mm
07:06 -3.2 °C -10.3 °C 1034.4 hPa NNE 13 km/h 24.1 km/h 58 % 0 mm
07:11 -3.2 °C -10.3 °C 1034.4 hPa North 11.6 km/h 18.5 km/h 58 % 0 mm
07:17 -3.2 °C -10.3 °C 1034.8 hPa North 16.1 km/h 22.2 km/h 58 % 0 mm
07:22 -3.2 °C -10.1 °C 1034.8 hPa NNE 14.3 km/h 24.1 km/h 59 % 0 mm
07:27 -3.2 °C -10.6 °C 1035.1 hPa NNE 9.5 km/h 22.2 km/h 57 % 0 mm
07:32 -3.2 °C -10.6 °C 1035.1 hPa North 15 km/h 20.4 km/h 57 % 0 mm
07:37 -3.2 °C -10.6 °C 1035.1 hPa NNE 11.4 km/h 18.5 km/h 57 % 0 mm
07:42 -3.2 °C -10.3 °C 1035.1 hPa NNE 10.8 km/h 18.5 km/h 58 % 0 mm
07:47 -3.2 °C -10.5 °C 1035.4 hPa North 13.5 km/h 18.5 km/h 57 % 0 mm
07:52 -3.2 °C -10.5 °C 1035.1 hPa NNE 9.2 km/h 14.8 km/h 57 % 0 mm
07:57 -3.1 °C -10.2 °C 1035.4 hPa NNE 13.4 km/h 20.4 km/h 58 % 0 mm
08:02 -3.1 °C -10.4 °C 1035.4 hPa NNE 14.5 km/h 19.3 km/h 57 % 0 mm
08:07 -3.1 °C -10.4 °C 1035.4 hPa NNE 6.4 km/h 13 km/h 57 % 0 mm
08:12 -3.1 °C -10.2 °C 1035.4 hPa NNE 9 km/h 14.8 km/h 58 % 0 mm
08:17 -3 °C -10.1 °C 1035.4 hPa NNE 9.5 km/h 18.5 km/h 58 % 0 mm
08:22 -2.8 °C -9.7 °C 1035.4 hPa NNE 12.9 km/h 14.8 km/h 59 % 0 mm
08:27 -2.7 °C -9.8 °C 1035.4 hPa NNE 7.9 km/h 14.8 km/h 58 % 0 mm
08:32 -2.6 °C -9.7 °C 1035.8 hPa NNE 9.8 km/h 13 km/h 58 % 0 mm
08:37 -2.4 °C -9.6 °C 1035.8 hPa NNE 11.3 km/h 17.7 km/h 58 % 0 mm
08:42 -2.2 °C -9.6 °C 1035.8 hPa NE 6 km/h 11.1 km/h 57 % 0 mm
08:47 -2.1 °C -9.7 °C 1035.8 hPa NNE 11.6 km/h 18.5 km/h 56 % 0 mm
08:52 -1.8 °C -9.2 °C 1035.8 hPa NNE 5.3 km/h 9.3 km/h 57 % 0 mm
08:57 -1.6 °C -9.3 °C 1035.8 hPa NNE 5.5 km/h 13 km/h 56 % 0 mm
09:02 -1.3 °C -9.2 °C 1035.8 hPa ENE 7.6 km/h 13 km/h 55 % 0 mm
09:07 -1.2 °C -9.3 °C 1035.8 hPa NNE 5.3 km/h 7.4 km/h 54 % 0 mm
09:13 -0.8 °C -8.9 °C 1035.8 hPa North 10.8 km/h 13 km/h 54 % 0 mm
09:18 -0.7 °C -8.8 °C 1035.8 hPa NNE 4.5 km/h 9.3 km/h 54 % 0 mm
09:23 -0.4 °C -9.3 °C 1035.4 hPa NE 3.7 km/h 13 km/h 51 % 0 mm
09:28 -0.3 °C -9 °C 1035.8 hPa NNE 4.3 km/h 13 km/h 52 % 0 mm
09:33 -0.3 °C -9.5 °C 1035.8 hPa NE 7.9 km/h 13 km/h 50 % 0 mm
09:38 -0.6 °C -9.4 °C 1035.8 hPa ENE 4.7 km/h 11.1 km/h 51 % 0 mm
09:43 -0.5 °C -9.4 °C 1035.8 hPa ENE 7.1 km/h 9.3 km/h 51 % 0 mm
09:48 -0.7 °C -10.1 °C 1035.8 hPa NE 5 km/h 7.4 km/h 49 % 0 mm
09:53 -0.6 °C -9.4 °C 1036.1 hPa ENE 4.8 km/h 7.4 km/h 51 % 0 mm
09:58 -0.5 °C -9.7 °C 1035.8 hPa ENE 5.8 km/h 11.1 km/h 50 % 0 mm
10:03 -0.5 °C -9.7 °C 1036.1 hPa ENE 6.4 km/h 13 km/h 50 % 0 mm
10:08 -0.6 °C -9.4 °C 1036.1 hPa ENE 4.5 km/h 7.4 km/h 51 % 0 mm
10:13 -0.6 °C -9.7 °C 1036.1 hPa NNE 5.1 km/h 13 km/h 50 % 0 mm
10:18 -0.4 °C -9.3 °C 1035.8 hPa NE 5 km/h 11.1 km/h 51 % 0 mm
10:23 -0.2 °C -8.9 °C 1035.8 hPa East 6.1 km/h 11.3 km/h 52 % 0 mm
10:28 -0.2 °C -9.1 °C 1035.8 hPa ENE 4.8 km/h 9.3 km/h 51 % 0 mm
10:33 -0.1 °C -9.3 °C 1035.8 hPa East 7.7 km/h 14.8 km/h 50 % 0 mm
10:38 -0.1 °C -9.6 °C 1035.8 hPa NNE 4.2 km/h 7.4 km/h 49 % 0 mm
10:43 0.1 °C -9.2 °C 1035.4 hPa ENE 6.3 km/h 11.1 km/h 50 % 0 mm
10:48 0.2 °C -9 °C 1035.4 hPa ENE 4 km/h 11.1 km/h 50 % 0 mm
10:53 0.6 °C -8.7 °C 1035.4 hPa ENE 11.9 km/h 13 km/h 50 % 0 mm
10:59 0.4 °C -9.1 °C 1035.1 hPa NE 4.8 km/h 11.1 km/h 49 % 0 mm
11:04 0.4 °C -9.6 °C 1035.4 hPa ENE 2.1 km/h 11.1 km/h 47 % 0 mm
11:09 0.8 °C -9.3 °C 1035.4 hPa ENE 6.3 km/h 11.1 km/h 47 % 0 mm
11:14 0.9 °C -8.8 °C 1035.4 hPa ENE 4.2 km/h 13 km/h 48 % 0 mm
11:19 1.1 °C -8.7 °C 1035.4 hPa NE 6.4 km/h 13 km/h 48 % 0 mm
11:24 1.1 °C -9.8 °C 1035.1 hPa NE 5.6 km/h 9.3 km/h 44 % 0 mm
11:29 1.3 °C -7.9 °C 1035.4 hPa ENE 4 km/h 5.6 km/h 50 % 0 mm
11:34 1.5 °C -8.6 °C 1035.4 hPa NE 3.4 km/h 5.6 km/h 47 % 0 mm
11:39 1.5 °C -9.2 °C 1035.1 hPa NE 5 km/h 11.1 km/h 45 % 0 mm
11:44 1.3 °C -8.8 °C 1035.1 hPa ENE 4.7 km/h 6.4 km/h 47 % 0 mm
11:49 1.2 °C -8.9 °C 1034.8 hPa East 4.5 km/h 8 km/h 47 % 0 mm
11:54 1.2 °C -8.4 °C 1034.8 hPa ENE 2.3 km/h 6.4 km/h 49 % 0 mm
11:59 0.8 °C -9.8 °C 1034.8 hPa ESE 4.5 km/h 7.4 km/h 45 % 0 mm
12:04 0.6 °C -9.2 °C 1034.8 hPa East 6.1 km/h 9.7 km/h 48 % 0 mm
12:09 0.3 °C -8.9 °C 1034.8 hPa NE 4.2 km/h 8 km/h 50 % 0 mm
12:14 0.4 °C -9.6 °C 1034.8 hPa ENE 3.1 km/h 5.6 km/h 47 % 0 mm
12:19 0.4 °C -9.6 °C 1035.1 hPa ENE 4.5 km/h 6.4 km/h 47 % 0 mm
12:24 0.5 °C -9 °C 1034.8 hPa NE 1.4 km/h 4.8 km/h 49 % 0 mm
12:30 0.6 °C -10.6 °C 1034.8 hPa ENE 0.8 km/h 1.6 km/h 43 % 0 mm
12:35 0.7 °C -9.6 °C 1034.8 hPa ENE 7.4 km/h 11.1 km/h 46 % 0 mm
12:40 0.7 °C -9.9 °C 1034.4 hPa ENE 5.5 km/h 7.4 km/h 45 % 0 mm
12:45 0.7 °C -9.9 °C 1034.4 hPa ENE 4.3 km/h 7.4 km/h 45 % 0 mm
12:50 0.7 °C -9.7 °C 1034.4 hPa ENE 5.6 km/h 13 km/h 46 % 0 mm
12:55 0.7 °C -10.2 °C 1034.1 hPa ENE 3.9 km/h 5.6 km/h 44 % 0 mm
13:00 0.8 °C -9.3 °C 1034.1 hPa East 6.8 km/h 11.1 km/h 47 % 0 mm
13:05 0.8 °C -9.6 °C 1034.1 hPa NE 6.3 km/h 9.7 km/h 46 % 0 mm
13:10 0.9 °C -9.4 °C 1034.1 hPa ENE 5.5 km/h 7.4 km/h 46 % 0 mm
13:15 1.1 °C -9.3 °C 1033.7 hPa NE 2.4 km/h 5.6 km/h 46 % 0 mm
13:20 1.1 °C -10.1 °C 1033.7 hPa East 5.3 km/h 11.1 km/h 43 % 0 mm
13:25 1.1 °C -10.1 °C 1033.7 hPa ENE 3.2 km/h 5.6 km/h 43 % 0 mm
13:30 1.2 °C -9.5 °C 1033.4 hPa ENE 9.5 km/h 11.3 km/h 45 % 0 mm
13:35 1.2 °C -9.8 °C 1033.4 hPa East 4.5 km/h 7.4 km/h 44 % 0 mm
13:41 1.2 °C -9.7 °C 1033.4 hPa ENE 3.2 km/h 9.7 km/h 44 % 0 mm
13:46 1.3 °C -8.8 °C 1033.4 hPa ENE 4.8 km/h 11.3 km/h 47 % 0 mm
13:51 1.3 °C -9.1 °C 1033.1 hPa NE 6.6 km/h 11.3 km/h 46 % 0 mm
13:56 1.3 °C -9.1 °C 1033.1 hPa East 5.8 km/h 9.3 km/h 46 % 0 mm
14:01 1.3 °C -9.3 °C 1033.1 hPa NE 7.7 km/h 11.1 km/h 45 % 0 mm
14:06 1.2 °C -9.5 °C 1033.1 hPa NE 9.2 km/h 11.3 km/h 45 % 0 mm
14:11 1.1 °C -9.5 °C 1033.1 hPa ENE 8.2 km/h 14.8 km/h 45 % 0 mm
14:16 1.1 °C -9.6 °C 1033.1 hPa NE 6.8 km/h 11.1 km/h 45 % 0 mm
14:21 0.9 °C -8.8 °C 1033.1 hPa ENE 6.1 km/h 11.1 km/h 48 % 0 mm
14:26 0.9 °C -9.1 °C 1032.7 hPa NE 5 km/h 7.4 km/h 47 % 0 mm
14:31 1.1 °C -8.7 °C 1032.7 hPa ENE 3.4 km/h 5.6 km/h 48 % 0 mm
14:36 1.1 °C -9 °C 1032.7 hPa ENE 5.6 km/h 11.1 km/h 47 % 0 mm
14:41 1.1 °C -8.7 °C 1032.7 hPa ENE 4.3 km/h 6.4 km/h 48 % 0 mm
14:46 1 °C -9.1 °C 1032.7 hPa ENE 4.8 km/h 7.4 km/h 47 % 0 mm
14:51 0.9 °C -8.8 °C 1032.7 hPa East 4.5 km/h 5.6 km/h 48 % 0 mm
14:56 0.9 °C -8.6 °C 1032.7 hPa ENE 4.2 km/h 7.4 km/h 49 % 0 mm
15:01 0.8 °C -9.3 °C 1032.7 hPa East 5 km/h 5 km/h 47 % 0 mm
15:07 0.7 °C -9.3 °C 1032.7 hPa ENE 6 km/h 6 km/h 47 % 0 mm
15:12 0.7 °C -9.9 °C 1032.7 hPa ENE 3.1 km/h 5.6 km/h 45 % 0 mm
15:17 0.7 °C -9.3 °C 1032.7 hPa ENE 3.9 km/h 7.4 km/h 47 % 0 mm
15:22 0.8 °C -10.1 °C 1032.4 hPa East 3.4 km/h 11.1 km/h 44 % 0 mm
15:27 0.7 °C -10.4 °C 1032.7 hPa ENE 5.6 km/h 11.1 km/h 43 % 0 mm
15:32 0.7 °C -9.3 °C 1032.4 hPa ENE 4.7 km/h 7.4 km/h 47 % 0 mm
15:37 0.8 °C -9 °C 1032.4 hPa ENE 3.9 km/h 13 km/h 48 % 0 mm
15:42 0.7 °C -9.3 °C 1032.7 hPa ENE 3.9 km/h 5.6 km/h 47 % 0 mm
15:47 0.7 °C -9.3 °C 1032.7 hPa NE 4.2 km/h 5.6 km/h 47 % 0 mm
15:52 0.7 °C -9.4 °C 1032.7 hPa ENE 5 km/h 7.4 km/h 47 % 0 mm
15:57 0.7 °C -9.1 °C 1032.7 hPa ENE 3.9 km/h 6.4 km/h 48 % 0 mm
16:02 0.7 °C -8.6 °C 1032.7 hPa ENE 5.5 km/h 9.3 km/h 50 % 0 mm
16:08 0.6 °C -9.2 °C 1032.7 hPa ENE 5 km/h 7.4 km/h 48 % 0 mm
16:13 0.6 °C -8.4 °C 1032.7 hPa NE 3.9 km/h 6.4 km/h 51 % 0 mm
16:18 0.6 °C -8.7 °C 1032.4 hPa NE 3.5 km/h 5.6 km/h 50 % 0 mm
16:23 0.5 °C -9.3 °C 1032.4 hPa ENE 5.6 km/h 8 km/h 48 % 0 mm
16:28 0.5 °C -8.7 °C 1032.4 hPa ENE 2.7 km/h 5.6 km/h 50 % 0 mm
16:33 0.4 °C -8.8 °C 1032.4 hPa ENE 4.3 km/h 5.6 km/h 50 % 0 mm
16:38 0.4 °C -8.6 °C 1032.4 hPa ENE 1.8 km/h 3.7 km/h 51 % 0 mm
16:43 0.4 °C -8.3 °C 1032.4 hPa ENE 3.4 km/h 5.6 km/h 52 % 0 mm
16:48 0.4 °C -8.1 °C 1032.4 hPa ENE 1.6 km/h 5.6 km/h 53 % 0 mm
16:53 0.3 °C -7.9 °C 1032.4 hPa ENE 1.8 km/h 3.7 km/h 54 % 0 mm
16:58 0.3 °C -7.7 °C 1032.4 hPa ESE 0.5 km/h 3.7 km/h 55 % 0 mm
17:03 0.3 °C -7.4 °C 1032.1 hPa SE 2.1 km/h 7.4 km/h 56 % 0 mm
17:08 0.3 °C -7.1 °C 1032.1 hPa South 1.8 km/h 7.4 km/h 58 % 0 mm
17:13 0.3 °C -6.6 °C 1032.1 hPa SSE 4.5 km/h 5.6 km/h 60 % 0 mm
17:19 0.3 °C -6.4 °C 1032.1 hPa SE 6.3 km/h 8 km/h 61 % 0 mm
17:24 0.3 °C -6.2 °C 1032.1 hPa South 1.4 km/h 5.6 km/h 62 % 0 mm
17:29 0.2 °C -6.2 °C 1032.1 hPa South 2.6 km/h 7.4 km/h 62 % 0 mm
17:34 0.2 °C -6.3 °C 1031.7 hPa Calm   3.7 km/h 62 % 0 mm
17:39 0.2 °C -6.1 °C 1032.1 hPa SSE 3.2 km/h 6.4 km/h 63 % 0 mm
17:44 0.1 °C -6.2 °C 1032.1 hPa SSE 3.7 km/h 5.6 km/h 63 % 0 mm
17:49 0 °C -6.2 °C 1032.1 hPa SE 0.5 km/h 3.7 km/h 63 % 0 mm
17:54 -0.1 °C -6.3 °C 1032.1 hPa SSE 1.9 km/h 6.4 km/h 63 % 0 mm
17:59 -0.1 °C -5.9 °C 1032.1 hPa SSE 4.2 km/h 5.6 km/h 65 % 0 mm
18:04 -0.2 °C -5.9 °C 1032.1 hPa SSE 0.2 km/h 5.6 km/h 65 % 0 mm
18:09 -0.2 °C -5.8 °C 1032.1 hPa SSE 4.5 km/h 5.6 km/h 66 % 0 mm
18:14 -0.3 °C -5.7 °C 1032.1 hPa SSE 1.6 km/h 5.6 km/h 67 % 0 mm
18:19 -0.3 °C -5.7 °C 1032.1 hPa SSE 1.8 km/h 6.4 km/h 67 % 0 mm
18:24 -0.3 °C -5.5 °C 1032.1 hPa SSE 2.6 km/h 5.6 km/h 68 % 0 mm
18:29 -0.4 °C -5.4 °C 1032.1 hPa South 0.3 km/h 3.2 km/h 69 % 0 mm
18:34 -0.5 °C -5.5 °C 1032.1 hPa South 0.8 km/h 3.7 km/h 69 % 0 mm
18:39 -0.5 °C -5.3 °C 1031.7 hPa SSE 1.8 km/h 5.6 km/h 70 % 0 mm
18:44 -0.6 °C -5.3 °C 1031.7 hPa SSE 2.1 km/h 6.4 km/h 70 % 0 mm
18:49 -0.6 °C -5.2 °C 1031.7 hPa SSE 1.6 km/h 5.6 km/h 71 % 0 mm
18:55 -0.6 °C -5.1 °C 1031.4 hPa SSE 0.3 km/h 7.4 km/h 72 % 0 mm
19:00 -0.6 °C -5.1 °C 1031.4 hPa SSE 0.5 km/h 3.7 km/h 72 % 0 mm
19:05 -0.7 °C -4.9 °C 1031.4 hPa Calm     73 % 0 mm
19:10 -0.7 °C -4.9 °C 1031 hPa Calm     73 % 0 mm
19:15 -0.7 °C -4.9 °C 1031 hPa Calm     73 % 0 mm
19:20 -0.7 °C -4.9 °C 1031 hPa Calm     73 % 0 mm
19:25 -0.8 °C -5 °C 1031.4 hPa Calm     73 % 0 mm
19:30 -0.8 °C -5.1 °C 1031 hPa Calm     73 % 0 mm
19:35 -0.9 °C -5.2 °C 1031 hPa Calm     73 % 0 mm
19:40 -1 °C -5.1 °C 1030.7 hPa Calm     74 % 0 mm
19:45 -1.1 °C -5.2 °C 1030.7 hPa Calm     74 % 0 mm
19:50 -1.2 °C -5.2 °C 1031 hPa Calm     74 % 0 mm
19:55 -1.3 °C -5.2 °C 1031 hPa Calm     75 % 0 mm
20:00 -1.3 °C -5 °C 1031 hPa Calm     76 % 0 mm
20:05 -1.4 °C -5.1 °C 1030.7 hPa Calm     76 % 0 mm
20:10 -1.5 °C -5.2 °C 1031 hPa Calm     76 % 0 mm
20:16 -1.6 °C -5.1 °C 1031 hPa Calm     77 % 0 mm
20:21 -1.6 °C -5.2 °C 1030.7 hPa Calm     77 % 0 mm
20:26 -1.7 °C -5.2 °C 1030.7 hPa Calm     77 % 0 mm
20:31 -1.7 °C -5 °C 1030.7 hPa Calm     78 % 0 mm
20:36 -1.7 °C -4.9 °C 1030.4 hPa Calm     79 % 0 mm
20:41 -1.7 °C -4.9 °C 1030.4 hPa Calm     79 % 0 mm
20:46 -1.7 °C -4.7 °C 1030.4 hPa Calm     80 % 0 mm
20:51 -1.7 °C -4.5 °C 1030.4 hPa Calm     81 % 0 mm
20:56 -1.7 °C -4.5 °C 1030.4 hPa Calm     81 % 0 mm
21:01 -1.7 °C -4.5 °C 1030 hPa Calm     81 % 0 mm
21:06 -1.6 °C -4.4 °C 1029.7 hPa Calm     81 % 0 mm
21:11 -1.6 °C -4.4 °C 1029.7 hPa Calm     81 % 0 mm
21:16 -1.5 °C -4.3 °C 1029.7 hPa Calm     81 % 0 mm
21:21 -1.4 °C -4.1 °C 1029.7 hPa Calm     82 % 0 mm
21:26 -1.4 °C -4.2 °C 1029.3 hPa Calm     81 % 0 mm
21:31 -1.3 °C -4.2 °C 1029.3 hPa Calm     81 % 0 mm
21:36 -1.3 °C -4.1 °C 1029.3 hPa Calm     81 % 0 mm
21:41 -1.3 °C -4.1 °C 1029 hPa Calm     81 % 0 mm
21:46 -1.2 °C -3.8 °C 1029 hPa Calm     82 % 0 mm
21:51 -1.1 °C -3.9 °C 1028.7 hPa Calm     81 % 0 mm
21:56 -1.1 °C -3.9 °C 1028.7 hPa Calm     81 % 0 mm
22:01 -1.1 °C -3.7 °C 1028.7 hPa Calm     82 % 0 mm
22:06 -1 °C -3.8 °C 1028.7 hPa Calm     81 % 0 mm
22:11 -0.9 °C -3.8 °C 1028.3 hPa Calm     81 % 0 mm
22:16 -0.9 °C -3.8 °C 1028.3 hPa Calm     81 % 0 mm
22:21 -0.9 °C -3.7 °C 1028.3 hPa Calm     81 % 0 mm
22:26 -0.8 °C -3.7 °C 1028 hPa Calm     81 % 0 mm
22:31 -0.8 °C -3.5 °C 1028 hPa Calm     82 % 0 mm
22:37 -0.8 °C -3.6 °C 1028 hPa Calm     81 % 0 mm
22:42 -0.8 °C -3.4 °C 1028 hPa Calm     82 % 0 mm
22:47 -0.8 °C -3.4 °C 1028 hPa Calm     82 % 0 mm
22:52 -0.7 °C -3.4 °C 1028 hPa Calm     82 % 0 mm
22:57 -0.7 °C -3.4 °C 1028 hPa Calm     82 % 0 mm
23:02 -0.7 °C -3.3 °C 1027.7 hPa Calm     82 % 0 mm
23:07 -0.7 °C -3.3 °C 1027.7 hPa Calm     82 % 0 mm
23:12 -0.6 °C -3.3 °C 1027.3 hPa Calm     82 % 0 mm
23:17 -0.6 °C -3.3 °C 1027.3 hPa Calm     82 % 0 mm
23:22 -0.6 °C -3.3 °C 1027.3 hPa Calm     82 % 0 mm
23:27 -0.6 °C -3.4 °C 1027 hPa Calm     81 % 0 mm
23:32 -0.5 °C -3.2 °C 1026.6 hPa SSE 0.3 km/h 1.9 km/h 82 % 0 mm
23:37 -0.5 °C -3.2 °C 1026.6 hPa Calm     82 % 0 mm
23:42 -0.4 °C -3.2 °C 1026.6 hPa Calm     82 % 0 mm
23:47 -0.4 °C -3.2 °C 1026.6 hPa Calm     82 % 0 mm
23:52 -0.4 °C -3.1 °C 1026.6 hPa Calm     82 % 0 mm
23:57 -0.4 °C -3.1 °C 1026.3 hPa Calm     82 % 0 mm
Crab Meadow Weather
Compliments of Weather Underground - 3 mb

Script developed by  Jim McMurry - jmcmurry@mwt.net Adapted for the template by  Wim van der Kuil - Leuven-Template.eu

Astronomy: A year on Venus is 225 days.